Time;durP1;ratioP1;P1;durP2;ratioP2;P2;SDS_P1;SDS_P2;PMS_P1;PMS_P2;Temp;Humidity;BMP_temperature;BMP_pressure;BME280_temperature;BME280_humidity;BME280_pressure;Samples;Min_cycle;Max_cycle;Signal;HPM_P1;HPM_P2
2023/02/14 00:01:49;;;;;;;8.20;4.57;;;;;;;16.93;40.46;101937.38;5112682;28;20112;-65
2023/02/14 00:04:19;;;;;;;9.05;4.60;;;;;;;16.90;40.60;101938.44;5112656;28;20052;-64
2023/02/14 00:06:47;;;;;;;8.98;4.88;;;;;;;16.85;40.47;101932.44;5112779;28;20039;-65
2023/02/14 00:09:17;;;;;;;6.72;4.43;;;;;;;16.83;40.49;101939.75;5112569;28;20104;-65
2023/02/14 00:11:46;;;;;;;8.18;4.10;;;;;;;16.79;40.86;101932.78;5112694;28;20514;-64
2023/02/14 00:17:01;;;;;;;8.70;4.60;;;;;;;16.73;40.79;101935.88;5112734;28;20058;-64
2023/02/14 00:19:30;;;;;;;10.35;4.88;;;;;;;16.70;40.89;101936.94;5112464;28;20492;-64
2023/02/14 00:21:58;;;;;;;7.22;4.47;;;;;;;16.68;40.53;101940.63;5111975;28;20405;-64
2023/02/14 00:24:27;;;;;;;8.60;4.65;;;;;;;16.65;40.93;101930.03;5112417;28;20051;-64
2023/02/14 00:26:55;;;;;;;8.23;4.47;;;;;;;16.62;41.17;101930.22;5112355;28;20044;-63
2023/02/14 00:29:26;;;;;;;7.43;4.57;;;;;;;16.58;40.87;101930.38;5112415;28;20040;-65
2023/02/14 00:31:54;;;;;;;7.80;4.35;;;;;;;16.56;40.90;101928.75;5112392;28;20078;-64
2023/02/14 00:34:24;;;;;;;7.18;4.50;;;;;;;16.53;41.12;101929.81;5112300;28;20400;-65
2023/02/14 00:36:53;;;;;;;8.75;4.45;;;;;;;16.49;41.02;101922.84;5112212;28;20121;-65
2023/02/14 00:39:21;;;;;;;9.52;4.50;;;;;;;16.48;41.13;101920.25;5110080;28;20040;-65
2023/02/14 00:41:49;;;;;;;7.05;4.25;;;;;;;16.45;40.92;101940.16;5112192;28;20458;-65
2023/02/14 00:44:17;;;;;;;7.88;4.30;;;;;;;16.42;41.15;101943.03;5112234;28;20431;-65
2023/02/14 00:46:45;;;;;;;7.07;4.38;;;;;;;16.39;41.05;101937.81;5112343;28;20046;-65
2023/02/14 00:49:14;;;;;;;7.05;4.53;;;;;;;16.36;40.93;101939.81;5112059;28;20527;-65
2023/02/14 00:51:43;;;;;;;6.13;4.32;;;;;;;16.34;41.08;101939.91;5112279;28;20154;-65
2023/02/14 00:54:11;;;;;;;6.70;4.43;;;;;;;16.33;41.19;101943.56;5112001;28;20040;-65
2023/02/14 00:56:40;;;;;;;7.15;4.13;;;;;;;16.28;41.39;101941.13;5112137;28;20043;-65
2023/02/14 00:59:08;;;;;;;7.40;4.38;;;;;;;16.28;41.25;101937.56;5112015;28;20556;-64
2023/02/14 01:01:36;;;;;;;7.18;4.47;;;;;;;16.20;41.26;101931.75;5112009;28;20113;-65
2023/02/14 01:04:05;;;;;;;7.13;4.50;;;;;;;16.22;41.18;101933.41;5112126;28;20074;-66
2023/02/14 01:06:33;;;;;;;6.22;4.32;;;;;;;16.15;41.39;101923.06;5111991;28;20661;-65
2023/02/14 01:09:03;;;;;;;7.43;4.43;;;;;;;16.16;41.38;101928.38;5112293;28;20071;-66
2023/02/14 01:11:31;;;;;;;6.03;4.47;;;;;;;16.14;41.38;101926.72;5093985;28;20477;-65
2023/02/14 01:13:59;;;;;;;7.65;4.63;;;;;;;16.11;41.24;101925.06;5111918;28;20058;-65
2023/02/14 01:16:28;;;;;;;7.55;4.53;;;;;;;16.09;41.42;101909.94;5111947;28;20126;-65
2023/02/14 01:18:59;;;;;;;8.55;4.55;;;;;;;16.03;41.51;101906.66;5112016;28;20101;-65
2023/02/14 01:21:29;;;;;;;6.85;4.22;;;;;;;16.04;41.49;101918.31;5111805;28;20422;-64
2023/02/14 01:24:00;;;;;;;9.02;4.60;;;;;;;16.00;41.38;101906.81;5111922;28;20048;-65
2023/02/14 01:26:30;;;;;;;6.95;4.50;;;;;;;15.99;41.63;101905.09;5111837;28;20093;-65
2023/02/14 01:28:58;;;;;;;8.95;4.57;;;;;;;15.98;41.29;101907.88;5111825;28;20515;-65
2023/02/14 01:31:29;;;;;;;6.38;4.40;;;;;;;15.96;41.56;101905.28;5111755;28;20416;-65
2023/02/14 01:33:58;;;;;;;6.95;4.18;;;;;;;15.94;41.63;101904.50;5113068;28;20096;-66
2023/02/14 01:36:29;;;;;;;6.80;4.22;;;;;;;15.90;41.65;101900.22;5115577;28;20480;-65
2023/02/14 01:39:01;;;;;;;8.90;4.30;;;;;;;15.89;41.43;101898.50;5115784;28;20063;-65
2023/02/14 01:41:32;;;;;;;7.32;4.85;;;;;;;15.87;41.65;101899.53;5115456;28;20043;-67
2023/02/14 01:44:03;;;;;;;6.65;3.95;;;;;;;15.85;41.60;101896.06;5115488;28;20485;-65
2023/02/14 01:46:34;;;;;;;10.53;4.70;;;;;;;15.82;41.55;101905.16;5115459;28;20052;-65
2023/02/14 01:49:06;;;;;;;7.30;4.70;;;;;;;15.82;41.63;101913.25;5115284;28;20287;-64
2023/02/14 01:51:37;;;;;;;7.25;4.68;;;;;;;15.79;41.59;101913.41;5115269;28;20100;-65
2023/02/14 01:54:07;;;;;;;6.63;4.43;;;;;;;15.77;41.69;101909.09;5115376;28;20749;-65
2023/02/14 01:56:40;;;;;;;7.10;4.43;;;;;;;15.74;41.40;101907.44;5115250;28;20112;-65
2023/02/14 01:59:10;;;;;;;;;;;;;;;15.74;41.58;101907.44;5115544;28;20051;-65
2023/02/14 02:01:40;;;;;;;8.18;4.70;;;;;;;15.72;41.59;101901.25;5115087;28;19919;-65
2023/02/14 02:04:13;;;;;;;7.88;4.53;;;;;;;15.71;41.47;101894.13;5115154;28;20077;-65
2023/02/14 02:06:45;;;;;;;;;;;;;;;15.67;41.56;101901.53;5115468;28;20066;-64
2023/02/14 02:09:17;;;;;;;6.63;4.15;;;;;;;15.65;41.86;101895.38;5114937;28;19924;-65
2023/02/14 02:11:47;;;;;;;6.20;3.95;;;;;;;15.60;41.66;101888.47;5115069;28;20401;-65
2023/02/14 02:14:19;;;;;;;7.18;5.00;;;;;;;15.61;41.76;101882.16;5114895;28;20489;-65
2023/02/14 02:17:09;;;;;;;7.18;4.70;;;;;;;15.61;41.61;101879.47;5114964;28;20048;-65
2023/02/14 02:20:23;;;;;;;6.57;4.22;;;;;;;15.59;41.52;101867.91;5114630;28;20043;-65
2023/02/14 02:23:13;;;;;;;7.68;4.88;;;;;;;15.56;41.61;101876.16;5114782;28;20067;-64
2023/02/14 02:26:07;;;;;;;6.97;4.68;;;;;;;15.52;41.74;101869.19;5114531;28;20590;-64
2023/02/14 02:29:16;;;;;;;7.30;4.60;;;;;;;15.52;41.71;101874.56;5114589;28;20096;-65
2023/02/14 02:32:04;;;;;;;7.93;5.00;;;;;;;15.49;41.42;101881.00;5039200;28;20152;-65
2023/02/14 02:37:46;;;;;;;7.05;4.88;;;;;;;15.44;41.60;101875.88;5130217;27;20379;-66
2023/02/14 02:40:35;;;;;;;6.93;3.88;;;;;;;15.43;41.54;101878.63;5130278;27;20058;-64
2023/02/14 02:43:15;;;;;;;7.45;4.63;;;;;;;15.42;41.59;101875.06;5130125;27;20057;-64
2023/02/14 02:48:40;;;;;;;6.30;4.18;;;;;;;15.36;41.58;101867.34;5130154;27;20609;-66
2023/02/14 02:54:14;;;;;;;6.63;4.68;;;;;;;15.34;41.88;101874.63;5129943;28;20046;-65
2023/02/14 02:56:48;;;;;;;7.38;4.60;;;;;;;15.33;41.69;101872.88;5129844;28;20089;-65
2023/02/14 02:59:21;;;;;;;8.43;4.40;;;;;;;15.31;41.71;101874.78;5129878;27;20538;-66
2023/02/14 03:01:55;;;;;;;7.20;4.50;;;;;;;15.28;41.82;101868.72;5129737;28;20092;-66
2023/02/14 03:09:59;;;;;;;6.72;4.60;;;;;;;15.20;41.57;101866.44;5129630;27;20326;-64
2023/02/14 03:13:11;;;;;;;7.47;4.40;;;;;;;15.22;41.57;101869.91;5129558;27;20051;-63
2023/02/14 03:15:52;;;;;;;7.53;4.60;;;;;;;15.20;41.74;101873.63;5092966;27;20051;-66
2023/02/14 03:21:32;;;;;;;6.68;4.30;;;;;;;15.17;42.07;101874.69;5129472;27;20044;-65
2023/02/14 03:24:09;;;;;;;6.75;4.57;;;;;;;15.14;41.94;101867.63;5129409;27;20047;-64
2023/02/14 03:26:48;;;;;;;8.40;4.80;;;;;;;15.14;41.50;101866.75;5129365;27;20570;-66
2023/02/14 03:29:25;;;;;;;6.82;4.50;;;;;;;15.12;41.72;101868.66;5129452;27;20063;-66
2023/02/14 03:32:01;;;;;;;6.75;4.57;;;;;;;15.10;41.74;101866.06;5129425;27;20469;-66
2023/02/14 03:34:36;;;;;;;6.78;4.80;;;;;;;15.07;42.04;101868.94;5129188;27;20043;-66
2023/02/14 03:37:10;;;;;;;6.72;4.40;;;;;;;15.07;41.80;101866.25;5128859;27;20051;-65
2023/02/14 03:39:46;;;;;;;6.53;4.20;;;;;;;15.06;41.73;101869.88;5129352;27;20125;-66
2023/02/14 03:42:22;;;;;;;6.82;4.47;;;;;;;15.04;42.10;101865.50;5129010;27;20047;-65
2023/02/14 03:44:53;;;;;;;6.10;4.20;;;;;;;15.03;41.86;101861.97;5129021;27;20050;-66
2023/02/14 03:47:25;;;;;;;6.97;4.43;;;;;;;15.01;41.78;101871.94;5124268;27;20493;-66
2023/02/14 03:49:56;;;;;;;7.65;4.40;;;;;;;15.00;41.85;101869.34;5115262;28;20465;-65
2023/02/14 03:52:27;;;;;;;7.15;4.60;;;;;;;14.98;41.81;101871.25;5115326;28;20085;-65
2023/02/14 03:54:57;;;;;;;7.03;4.45;;;;;;;14.97;41.84;101869.50;5115262;28;20051;-64
2023/02/14 03:57:31;;;;;;;7.10;4.63;;;;;;;14.96;41.87;101870.44;5115049;28;20065;-64
2023/02/14 03:59:59;;;;;;;8.05;4.68;;;;;;;14.94;41.89;101872.34;5115063;28;20092;-64
2023/02/14 04:02:34;;;;;;;6.60;4.30;;;;;;;14.92;41.94;101866.19;5114806;28;20501;-64
2023/02/14 04:05:08;;;;;;;7.78;4.85;;;;;;;14.93;42.00;101873.28;5115064;28;20054;-65
2023/02/14 04:07:45;;;;;;;7.32;4.68;;;;;;;14.89;42.13;101868.09;5114872;28;20504;-65
2023/02/14 04:10:13;;;;;;;6.00;4.05;;;;;;;14.89;41.81;101873.47;5114855;28;20047;-66
2023/02/14 04:12:44;;;;;;;8.00;4.93;;;;;;;14.86;41.98;101861.97;5114744;28;20082;-64
2023/02/14 04:15:13;;;;;;;8.93;4.78;;;;;;;14.83;41.65;101865.69;5114655;28;20048;-66
2023/02/14 04:20:29;;;;;;;7.60;4.57;;;;;;;14.82;41.50;101869.34;5114716;28;20094;-66
2023/02/14 04:22:57;;;;;;;7.03;4.50;;;;;;;14.81;41.86;101864.06;5114622;28;20052;-64
2023/02/14 04:25:25;;;;;;;7.30;4.57;;;;;;;14.79;41.83;101865.97;5114542;28;20488;-64
2023/02/14 04:27:55;;;;;;;7.22;4.95;;;;;;;14.78;41.78;101870.47;5114548;28;20047;-64
2023/02/14 04:30:23;;;;;;;6.93;4.57;;;;;;;14.78;41.72;101870.47;5114505;28;20047;-66
2023/02/14 04:32:51;;;;;;;7.35;4.72;;;;;;;14.76;41.48;101877.72;5114424;28;20096;-66
2023/02/14 04:35:19;;;;;;;6.95;4.50;;;;;;;14.73;41.92;101872.50;5114280;28;20067;-66
2023/02/14 04:37:48;;;;;;;6.45;4.05;;;;;;;14.76;42.38;101877.72;5114212;28;20108;-66
2023/02/14 04:40:19;;;;;;;6.63;4.05;;;;;;;14.80;42.71;101879.31;5114282;28;20043;-66
2023/02/14 04:42:47;;;;;;;7.03;4.30;;;;;;;14.87;43.08;101877.19;5114335;28;20044;-64
2023/02/14 04:45:17;;;;;;;6.43;4.20;;;;;;;14.98;42.95;101876.63;5114182;28;20396;-64
2023/02/14 04:47:45;;;;;;;7.88;4.28;;;;;;;15.09;42.99;101874.22;5114135;28;20044;-65
2023/02/14 04:50:14;;;;;;;6.80;4.05;;;;;;;15.19;42.89;101872.78;5114045;28;20538;-65
2023/02/14 04:52:42;;;;;;;6.88;4.20;;;;;;;15.32;42.78;101868.47;5113884;28;20047;-65
2023/02/14 04:55:10;;;;;;;7.30;3.92;;;;;;;15.41;42.55;101870.66;5113938;28;20112;-65
2023/02/14 04:57:38;;;;;;;6.50;4.13;;;;;;;15.54;42.52;101867.28;5113688;28;20054;-65
2023/02/14 05:00:08;;;;;;;7.00;4.38;;;;;;;15.66;42.21;101866.66;5112828;28;20048;-65
2023/02/14 05:02:37;;;;;;;6.78;3.90;;;;;;;15.78;42.30;101863.25;5113665;28;20130;-66
2023/02/14 05:05:07;;;;;;;6.40;4.25;;;;;;;15.89;42.11;101865.34;5113747;28;20480;-64
2023/02/14 05:07:35;;;;;;;7.93;4.20;;;;;;;15.99;41.90;101867.41;5113730;28;20047;-65
2023/02/14 05:10:05;;;;;;;6.45;4.32;;;;;;;16.12;41.78;101869.44;5113621;28;20041;-65
2023/02/14 05:12:34;;;;;;;6.50;4.13;;;;;;;16.20;41.69;101859.06;5113548;28;20081;-65
2023/02/14 05:15:02;;;;;;;7.43;4.25;;;;;;;16.27;41.65;101855.91;5113490;28;20044;-64
2023/02/14 05:17:30;;;;;;;7.85;4.60;;;;;;;16.43;41.37;101863.97;5113374;28;20039;-63
2023/02/14 05:19:59;;;;;;;6.40;4.40;;;;;;;16.56;41.51;101867.66;5113432;28;20043;-64
2023/02/14 05:22:27;;;;;;;6.38;4.03;;;;;;;16.69;41.19;101867.81;5113403;28;20065;-64
2023/02/14 05:24:56;;;;;;;6.22;4.20;;;;;;;16.79;41.18;101868.13;5113288;28;20043;-64
2023/02/14 05:27:24;;;;;;;6.78;4.30;;;;;;;16.91;40.93;101866.53;5113294;28;20437;-64
2023/02/14 05:29:52;;;;;;;6.20;4.13;;;;;;;16.99;40.83;101867.81;5113141;28;20044;-64
2023/02/14 05:32:20;;;;;;;6.85;4.10;;;;;;;17.08;40.61;101869.03;5112963;28;20054;-63
2023/02/14 05:34:48;;;;;;;7.60;4.30;;;;;;;17.15;40.68;101865.88;5113006;28;20127;-63
2023/02/14 05:37:18;;;;;;;6.75;4.05;;;;;;;17.24;40.47;101875.22;5112746;28;20048;-63
2023/02/14 05:39:46;;;;;;;5.57;3.58;;;;;;;17.28;40.42;101875.91;5113155;28;20129;-64
2023/02/14 05:42:14;;;;;;;6.07;4.07;;;;;;;17.29;40.39;101869.56;5112918;28;20044;-63
2023/02/14 05:44:42;;;;;;;6.75;4.40;;;;;;;17.28;40.32;101865.13;5112839;28;20044;-64
2023/02/14 05:47:11;;;;;;;7.10;4.22;;;;;;;17.25;40.29;101870.69;5112695;28;20043;-63
2023/02/14 05:49:40;;;;;;;7.13;3.88;;;;;;;17.23;40.34;101869.94;5112643;28;20071;-63
2023/02/14 05:52:08;;;;;;;6.10;4.20;;;;;;;17.16;40.39;101867.59;5112577;28;20047;-66
2023/02/14 05:54:38;;;;;;;6.57;4.03;;;;;;;17.15;40.48;101871.25;5112611;28;20403;-64
2023/02/14 05:57:06;;;;;;;6.72;4.30;;;;;;;17.11;40.44;101875.13;5112439;28;20043;-64
2023/02/14 05:59:34;;;;;;;6.70;4.47;;;;;;;17.07;40.39;101873.56;5112539;28;20043;-64
2023/02/14 06:02:02;;;;;;;6.38;4.60;;;;;;;17.03;40.48;101872.03;5112585;28;20071;-64
2023/02/14 06:04:30;;;;;;;6.60;4.30;;;;;;;16.98;40.49;101882.22;5112430;28;20397;-64
2023/02/14 06:06:59;;;;;;;7.47;4.75;;;;;;;16.95;40.48;101881.53;5112064;28;20043;-63
2023/02/14 06:09:27;;;;;;;6.97;4.40;;;;;;;16.88;40.48;101879.22;5112382;28;20044;-64
2023/02/14 06:11:57;;;;;;;7.47;4.65;;;;;;;16.86;40.64;101885.66;5112007;28;20051;-65
2023/02/14 06:14:25;;;;;;;7.80;4.38;;;;;;;16.80;40.69;101886.06;5112400;28;20050;-64
2023/02/14 06:16:53;;;;;;;8.82;4.80;;;;;;;16.78;40.75;101890.66;5112324;28;20126;-64
2023/02/14 06:19:22;;;;;;;7.10;4.50;;;;;;;16.72;40.98;101893.72;5112101;28;20100;-64
2023/02/14 06:21:50;;;;;;;6.78;4.40;;;;;;;16.69;40.87;101893.88;5112131;28;20051;-63
2023/02/14 06:24:18;;;;;;;8.20;4.97;;;;;;;16.65;41.00;101906.66;5112316;28;20125;-62
2023/02/14 06:26:46;;;;;;;8.35;4.60;;;;;;;16.59;41.08;101905.19;5112036;28;20168;-65
2023/02/14 06:29:17;;;;;;;7.68;4.80;;;;;;;16.55;40.83;101914.41;5112007;28;20039;-65
2023/02/14 06:31:45;;;;;;;7.45;4.70;;;;;;;16.50;40.91;101921.91;5112181;28;20455;-63
2023/02/14 06:34:13;;;;;;;7.35;4.80;;;;;;;16.45;40.69;101924.00;5111991;28;20040;-63
2023/02/14 06:36:44;;;;;;;9.95;5.55;;;;;;;16.43;41.00;101931.31;5111877;28;20416;-64
2023/02/14 06:39:12;;;;;;;7.25;5.18;;;;;;;16.39;40.59;101929.72;5111800;28;20054;-64
2023/02/14 06:41:41;;;;;;;10.43;6.43;;;;;;;16.36;40.09;101935.28;5112044;28;20442;-64
2023/02/14 06:44:09;;;;;;;11.80;6.55;;;;;;;16.33;40.37;101934.63;5111986;28;20457;-65
2023/02/14 06:46:38;;;;;;;8.52;5.63;;;;;;;16.29;40.84;101932.06;5110028;28;20247;-65
2023/02/14 06:49:06;;;;;;;9.32;5.47;;;;;;;16.26;41.06;101934.09;5109862;28;20043;-65
2023/02/14 06:51:35;;;;;;;8.80;5.32;;;;;;;16.22;41.21;101935.25;5110138;28;20043;-64
2023/02/14 06:54:03;;;;;;;9.63;5.93;;;;;;;16.18;41.66;101936.34;5110148;28;20044;-64
2023/02/14 06:56:31;;;;;;;8.23;5.40;;;;;;;16.15;41.38;101942.78;5110359;28;20054;-65
2023/02/14 06:58:59;;;;;;;11.00;5.75;;;;;;;16.10;41.43;101933.22;5110238;28;20140;-65
2023/02/14 07:01:28;;;;;;;10.93;5.78;;;;;;;16.08;41.66;101935.13;5111277;28;20442;-65
2023/02/14 07:03:58;;;;;;;10.35;5.97;;;;;;;16.04;41.81;101950.59;5111869;28;20423;-65
2023/02/14 07:06:26;;;;;;;11.82;6.00;;;;;;;16.01;41.60;101954.31;5111659;28;20047;-64
2023/02/14 07:08:54;;;;;;;10.68;5.32;;;;;;;15.97;41.73;101947.38;5111899;28;20044;-64
2023/02/14 07:11:23;;;;;;;11.00;5.50;;;;;;;15.94;42.01;101949.38;5111735;28;20047;-64
2023/02/14 07:13:51;;;;;;;10.25;5.75;;;;;;;15.90;42.33;101947.78;5111550;28;20134;-64
2023/02/14 07:16:19;;;;;;;10.52;6.03;;;;;;;15.87;42.02;101946.16;5111651;28;20047;-64
2023/02/14 07:18:47;;;;;;;10.48;5.90;;;;;;;15.80;41.98;101936.69;5111497;28;20043;-64
2023/02/14 07:21:17;;;;;;;9.85;5.97;;;;;;;15.80;42.30;101947.44;5111490;28;20040;-65
2023/02/14 07:23:48;;;;;;;12.23;6.13;;;;;;;15.78;42.21;101943.97;5114337;28;20048;-65
2023/02/14 07:26:17;;;;;;;8.35;5.38;;;;;;;15.76;42.42;101943.19;5115526;28;20048;-64
2023/02/14 07:28:47;;;;;;;9.15;5.30;;;;;;;15.72;42.86;101950.53;5115227;27;20512;-64
2023/02/14 07:31:17;;;;;;;10.15;6.30;;;;;;;15.69;42.66;101948.03;5115173;28;20408;-64
2023/02/14 07:33:45;;;;;;;12.27;5.68;;;;;;;15.68;42.42;101964.25;5115370;28;20094;-64
2023/02/14 07:36:13;;;;;;;12.57;5.85;;;;;;;15.67;42.15;101959.84;5115264;28;20267;-65
2023/02/14 07:38:43;;;;;;;10.70;5.75;;;;;;;15.69;43.02;101958.78;5110150;28;20108;-62
2023/02/14 07:41:12;;;;;;;9.82;5.75;;;;;;;15.71;43.18;101964.94;5115172;28;20447;-65
2023/02/14 07:43:41;;;;;;;11.00;5.18;;;;;;;15.81;43.50;101965.31;5115005;28;20047;-64
2023/02/14 07:46:09;;;;;;;10.68;5.30;;;;;;;15.91;43.57;101966.53;5115019;28;20047;-65
2023/02/14 07:48:40;;;;;;;9.95;5.57;;;;;;;16.03;43.60;101965.88;5114967;28;20046;-65
2023/02/14 07:51:09;;;;;;;8.93;5.07;;;;;;;16.13;43.46;101971.63;5113221;28;20512;-64
2023/02/14 07:53:37;;;;;;;10.70;5.35;;;;;;;16.25;43.23;101973.63;5113953;28;20044;-65
2023/02/14 07:56:07;;;;;;;13.75;5.57;;;;;;;16.33;43.47;101967.78;5114947;27;20039;-64
2023/02/14 07:58:35;;;;;;;9.95;5.45;;;;;;;16.47;43.06;101980.47;5113405;28;20423;-64
2023/02/14 08:01:03;;;;;;;7.25;5.10;;;;;;;16.61;42.93;101980.53;5114712;28;20043;-65
2023/02/14 08:03:31;;;;;;;9.10;5.30;;;;;;;16.68;42.80;101973.84;5114920;28;20407;-66
2023/02/14 08:05:59;;;;;;;6.93;4.82;;;;;;;16.78;42.71;101974.19;5114966;28;20097;-64
2023/02/14 08:08:31;;;;;;;7.95;5.20;;;;;;;16.83;42.48;101972.97;5114852;28;20067;-64
2023/02/14 08:10:59;;;;;;;8.18;5.28;;;;;;;16.86;42.52;101963.81;5114713;28;20501;-63
2023/02/14 08:13:29;;;;;;;8.77;5.10;;;;;;;16.85;42.43;101959.38;5114463;28;20043;-64
2023/02/14 08:16:08;;;;;;;9.07;5.20;;;;;;;16.88;42.40;101965.44;5114446;28;20177;-64
2023/02/14 08:18:38;;;;;;;10.43;5.20;;;;;;;16.88;42.22;101961.91;5113129;28;20485;-63
2023/02/14 08:21:07;;;;;;;8.95;4.80;;;;;;;16.86;42.29;101963.81;5114370;28;20195;-64
2023/02/14 08:23:37;;;;;;;10.23;5.25;;;;;;;16.86;42.34;101966.50;5114223;27;20113;-65
2023/02/14 08:26:05;;;;;;;8.32;5.40;;;;;;;16.84;42.26;101974.69;5114233;28;20123;-65
2023/02/14 08:28:35;;;;;;;8.18;5.30;;;;;;;16.83;42.13;101972.09;5114270;28;20399;-64
2023/02/14 08:31:04;;;;;;;9.00;4.93;;;;;;;16.80;42.48;101972.28;5114059;28;20078;-66
2023/02/14 08:33:32;;;;;;;10.30;5.43;;;;;;;16.77;42.66;101973.31;5113858;28;20039;-63
2023/02/14 08:36:01;;;;;;;9.18;5.07;;;;;;;16.75;42.74;101969.84;5113917;28;20052;-64
2023/02/14 08:38:29;;;;;;;7.63;5.55;;;;;;;16.72;42.68;101978.13;5113863;28;20071;-64
2023/02/14 08:41:01;;;;;;;9.65;5.55;;;;;;;16.71;42.83;101978.22;5113930;28;20039;-65
2023/02/14 08:43:35;;;;;;;7.93;4.97;;;;;;;16.68;42.64;101972.94;5114012;27;20044;-64
2023/02/14 08:46:04;;;;;;;9.95;5.15;;;;;;;16.65;42.74;101973.16;5113784;28;20516;-65
2023/02/14 08:48:34;;;;;;;9.23;5.30;;;;;;;16.62;42.74;101973.34;5113864;28;20046;-64
2023/02/14 08:51:06;;;;;;;9.85;6.18;;;;;;;16.55;42.78;101965.59;5113704;28;20099;-64
2023/02/14 08:53:35;;;;;;;9.40;5.50;;;;;;;16.53;42.75;101963.97;5113888;28;20048;-64
2023/02/14 08:56:04;;;;;;;9.57;5.70;;;;;;;16.54;42.59;101979.16;5113792;28;20040;-64
2023/02/14 08:58:34;;;;;;;10.63;5.32;;;;;;;16.50;42.43;101978.47;5113636;28;20048;-64
2023/02/14 09:01:08;;;;;;;12.13;5.75;;;;;;;16.49;41.93;101981.22;5113555;28;20480;-65
2023/02/14 09:03:36;;;;;;;8.52;5.30;;;;;;;16.46;42.37;101970.66;5113496;28;20059;-65
2023/02/14 09:06:06;;;;;;;7.35;5.32;;;;;;;16.44;42.38;101976.13;5113426;28;20051;-65
2023/02/14 09:08:35;;;;;;;11.63;7.35;;;;;;;16.42;41.74;101969.97;5113740;28;20039;-65
2023/02/14 09:11:07;;;;;;;8.68;5.53;;;;;;;16.40;41.52;101969.16;5113318;27;20126;-65
2023/02/14 09:13:36;;;;;;;8.77;5.97;;;;;;;16.38;41.51;101960.31;5113362;28;20096;-65
2023/02/14 09:16:07;;;;;;;8.57;5.53;;;;;;;16.36;41.83;101962.22;5113316;28;20040;-65
2023/02/14 09:18:35;;;;;;;10.15;5.80;;;;;;;16.36;41.99;101966.75;5113302;28;20046;-65
2023/02/14 09:21:08;;;;;;;9.90;5.75;;;;;;;16.36;41.86;101967.63;5113130;28;20043;-64
2023/02/14 09:23:36;;;;;;;9.38;5.25;;;;;;;16.33;41.89;101970.50;5113105;28;20089;-64
2023/02/14 09:26:06;;;;;;;10.13;5.85;;;;;;;16.33;42.12;101973.19;5113225;28;20135;-65
2023/02/14 09:28:35;;;;;;;9.13;5.40;;;;;;;16.31;42.08;101969.72;5112943;28;20122;-64
2023/02/14 09:31:10;;;;;;;10.45;5.65;;;;;;;16.29;42.16;101971.59;5113053;28;20050;-64
2023/02/14 09:33:40;;;;;;;8.90;5.35;;;;;;;16.30;42.24;101984.09;5113043;28;20062;-64
2023/02/14 09:38:54;;;;;;;8.23;5.35;;;;;;;16.28;42.31;101980.63;5112637;28;20047;-64
2023/02/14 09:42:01;;;;;;;9.55;5.55;;;;;;;16.27;42.35;101984.28;5112746;28;20048;-65
2023/02/14 09:44:34;;;;;;;10.23;5.60;;;;;;;16.27;42.26;101992.38;5112885;28;20469;-64
2023/02/14 09:47:11;;;;;;;8.15;5.03;;;;;;;16.26;42.07;101979.88;5112362;28;20122;-65
2023/02/14 09:49:40;;;;;;;7.25;4.93;;;;;;;16.26;42.06;101988.81;5112609;28;20096;-64
2023/02/14 09:52:14;;;;;;;7.45;4.95;;;;;;;16.28;42.14;101986.03;5112549;28;20039;-64
2023/02/14 09:54:47;;;;;;;8.35;5.30;;;;;;;16.28;42.40;101986.88;5112742;28;20050;-65
2023/02/14 09:57:23;;;;;;;8.35;4.95;;;;;;;16.29;42.39;101977.00;5112508;28;20047;-64
2023/02/14 09:59:57;;;;;;;7.93;5.35;;;;;;;16.28;42.40;101986.88;5112051;28;20047;-65
2023/02/14 10:02:39;;;;;;;8.88;5.30;;;;;;;16.27;42.34;101978.91;5112351;28;20640;-64
2023/02/14 10:05:14;;;;;;;8.90;5.43;;;;;;;16.29;42.35;101974.28;5112374;28;20055;-65
2023/02/14 10:08:07;;;;;;;7.93;5.32;;;;;;;16.33;42.34;101980.41;5112191;28;20047;-64
2023/02/14 10:10:40;;;;;;;7.95;5.43;;;;;;;16.33;42.47;101978.56;5112227;28;20081;-64
2023/02/14 10:13:17;;;;;;;8.63;5.50;;;;;;;16.37;42.12;101982.81;5112336;28;20047;-64
2023/02/14 10:15:47;;;;;;;8.20;5.18;;;;;;;16.38;42.05;101968.38;5112253;28;20047;-65
2023/02/14 10:18:22;;;;;;;8.48;5.35;;;;;;;16.37;41.92;101973.88;5112188;28;20047;-65
2023/02/14 10:20:54;;;;;;;10.18;5.60;;;;;;;16.43;41.92;101970.84;5111845;28;20075;-65
2023/02/14 10:23:30;;;;;;;7.75;5.22;;;;;;;16.43;41.94;101966.31;5112164;28;20047;-64
2023/02/14 10:26:01;;;;;;;10.45;5.28;;;;;;;16.46;41.96;101966.13;5112150;28;20051;-64
2023/02/14 10:28:34;;;;;;;8.10;4.80;;;;;;;16.49;41.93;101967.75;5111981;28;20427;-65
2023/02/14 10:31:17;;;;;;;7.97;4.75;;;;;;;16.51;41.91;101964.06;5112069;28;20127;-65
2023/02/14 10:33:52;;;;;;;8.38;4.93;;;;;;;16.54;41.97;101969.25;5111795;28;20519;-65
2023/02/14 10:36:47;;;;;;;7.90;5.07;;;;;;;16.59;42.02;101958.19;5111431;28;20134;-65
2023/02/14 10:39:48;;;;;;;9.32;5.15;;;;;;;16.62;41.97;101957.16;5111861;28;20053;-65
2023/02/14 10:42:25;;;;;;;9.07;5.15;;;;;;;16.65;41.82;101951.59;5109740;28;20040;-65
2023/02/14 10:45:03;;;;;;;7.45;4.85;;;;;;;16.63;41.84;101932.81;5112189;28;20108;-68
2023/02/14 10:47:44;;;;;;;8.13;4.70;;;;;;;16.68;41.98;101940.63;5112123;28;20040;-65
2023/02/14 10:50:19;;;;;;;6.47;4.85;;;;;;;16.75;41.82;101952.81;5111833;28;20522;-65
2023/02/14 10:52:58;;;;;;;7.88;5.18;;;;;;;16.77;41.75;101940.13;5112089;28;20405;-65
2023/02/14 10:55:35;;;;;;;7.57;4.85;;;;;;;16.80;41.86;101940.81;5112086;28;20051;-65
2023/02/14 10:58:13;;;;;;;8.70;4.90;;;;;;;16.79;41.75;101936.38;5113831;28;20047;-65
2023/02/14 11:00:54;;;;;;;7.22;4.95;;;;;;;16.85;41.74;101932.44;5115757;27;20045;-65
2023/02/14 11:03:24;;;;;;;8.85;5.25;;;;;;;16.85;41.61;101929.75;5116081;28;20510;-65
2023/02/14 11:05:53;;;;;;;7.82;5.20;;;;;;;16.88;41.66;101927.72;5115956;28;20048;-64
2023/02/14 11:08:27;;;;;;;7.75;5.18;;;;;;;16.92;41.56;101927.56;5115880;28;20097;-65
2023/02/14 11:11:02;;;;;;;7.40;5.18;;;;;;;16.93;41.63;101935.56;5115568;27;20070;-66
2023/02/14 11:13:34;;;;;;;7.97;4.75;;;;;;;16.97;41.56;101934.38;5115884;28;20054;-65
2023/02/14 11:16:05;;;;;;;7.45;4.88;;;;;;;16.98;41.45;101930.72;5115844;28;20044;-64
2023/02/14 11:18:34;;;;;;;7.55;4.55;;;;;;;17.01;41.33;101938.66;5115854;28;20100;-64
2023/02/14 11:21:07;;;;;;;7.90;5.20;;;;;;;17.02;41.38;101929.59;5115756;28;20044;-64
2023/02/14 11:23:39;;;;;;;7.68;4.78;;;;;;;17.07;41.46;101932.88;5115693;28;20484;-64
2023/02/14 11:26:16;;;;;;;7.82;4.85;;;;;;;17.10;41.38;101935.41;5115970;28;20485;-64
2023/02/14 11:28:53;;;;;;;8.25;4.80;;;;;;;17.14;41.41;101928.84;5115858;28;20066;-65
2023/02/14 11:31:30;;;;;;;6.88;4.80;;;;;;;17.17;41.52;101933.19;5115581;28;20055;-65
2023/02/14 11:33:59;;;;;;;7.38;4.80;;;;;;;17.21;41.31;101928.47;5115467;28;20063;-64
2023/02/14 11:36:30;;;;;;;8.85;4.60;;;;;;;17.23;41.26;101927.41;5115120;28;20130;-64
2023/02/14 11:39:07;;;;;;;7.05;4.30;;;;;;;17.25;41.30;101925.50;5115129;28;20476;-64
2023/02/14 11:41:50;;;;;;;6.35;4.53;;;;;;;17.29;41.37;101928.88;5115207;28;20194;-64
2023/02/14 11:44:22;;;;;;;9.00;4.95;;;;;;;17.31;41.11;101924.25;5115116;28;20044;-65
2023/02/14 11:46:51;;;;;;;7.07;4.57;;;;;;;17.32;41.00;101921.47;5115097;28;20112;-65
2023/02/14 11:49:35;;;;;;;6.72;4.13;;;;;;;17.37;41.00;101924.75;5115140;28;20093;-64
2023/02/14 11:52:11;;;;;;;7.10;4.53;;;;;;;17.40;41.06;101918.28;5115363;28;20039;-64
2023/02/14 11:54:41;;;;;;;5.78;4.25;;;;;;;17.41;40.90;101918.19;5114742;28;20075;-64
2023/02/14 11:57:14;;;;;;;7.22;4.93;;;;;;;17.43;40.88;101923.47;5114473;28;20078;-64
2023/02/14 11:59:45;;;;;;;8.32;4.60;;;;;;;17.45;40.63;101914.31;5114707;28;20068;-64
2023/02/14 12:02:27;;;;;;;7.45;4.53;;;;;;;17.47;40.45;101914.25;5114683;28;20059;-64
2023/02/14 12:04:58;;;;;;;7.07;4.80;;;;;;;17.49;40.58;101923.13;5114644;28;20047;-65
2023/02/14 12:07:30;;;;;;;6.25;4.43;;;;;;;17.54;40.47;101915.56;5114769;28;20092;-64
2023/02/14 12:10:21;;;;;;;8.05;4.50;;;;;;;17.54;40.51;101910.19;5114332;28;20404;-64
2023/02/14 12:12:56;;;;;;;6.03;4.47;;;;;;;17.57;40.43;101915.41;5114773;28;20047;-64